Česky Dansk Deutsch English Español Suomi Français Magyar Italiano Nederlands norsk Polski Português svenska Türkçe

 

Het Weer

Nevsehir (Turkije)

20:50, 21 augustus 2016 (GMT)

NWNNE
WE
SWSSE
Home            
Nevsehir Kayseri / Erkilet Konya Ankara / Esenboga Ankara / Guvercin Lik Ankara / Etimesgut Adana / Sakirpasa Adana / Incirlik Murted Tur-Afb Sivas Tokat Merzifon Iskenderun Sivrihisar Malatya / Erhac Gaziantep Samsun Samsun / Carsamba Afyon Eskisehir Isparta Aleppo International Airport Lattakia

Om een weerknop op uw website of weblog te plaatsen, copieer onderstaande code en plak die in uw pagina. In het eerste vakje staat HTML-code, in het tweede vakje UBB-code.


Add to Google

Details

Wind speed:1 bf, 3 kn, 1.5 m/s, 3.5 miles/h, 5.6 km/h
Wind direction:ENE, 070° - SW, 220°
Visibility:Greater than 10000 m, 10 km, 32800 ft, 6.2 miles
Clouds:CAVOC
Temperature:22°C, 72°F
Gefühlte Temperatur:25°C, 77°F
Dew-point:7°C, 45°F
Atmospheric pressure:1013 hPa, 759.8 mmHg, 29.91 inHg, 1.000 atm
Relative humidity:37.9 %
METAR:LTAZ 212050Z 13003KT 070V220 CAVOK 22/07 Q1013

Snelkoppelingen

Actuele weersinformatie van de hele wereld. Voeg locaties toe met het plus (+) symbool. Deze snelkoppelingen kunnen worden toegevoegd aan Google.

Lid van de Technetium groep

website free tracking
StatCounter NetStat W3C Validator

19-05-2022 06:15:41
astro.technetium.be money.technetium.be phote.technetium.be tafeltennistafel.technetium.be www.ligfiets.net